sensor_id;sensor_type;location;lat;lon;timestamp;temperature;humidity
47414;DHT22;33163;0.000;0.000;2023-04-15T00:01:09;19.00;51.10
47414;DHT22;33163;0.000;0.000;2023-04-15T00:03:36;19.00;51.00
47414;DHT22;33163;0.000;0.000;2023-04-15T00:06:04;19.00;51.00
47414;DHT22;33163;0.000;0.000;2023-04-15T00:08:31;19.00;51.10
47414;DHT22;33163;0.000;0.000;2023-04-15T00:10:58;19.00;51.00
47414;DHT22;33163;0.000;0.000;2023-04-15T00:13:27;19.00;51.00
47414;DHT22;33163;0.000;0.000;2023-04-15T00:15:54;19.00;51.00
47414;DHT22;33163;0.000;0.000;2023-04-15T00:18:20;19.00;51.00
47414;DHT22;33163;0.000;0.000;2023-04-15T00:20:47;19.00;51.00
47414;DHT22;33163;0.000;0.000;2023-04-15T00:23:15;19.00;50.90
47414;DHT22;33163;0.000;0.000;2023-04-15T00:25:42;19.00;50.90
47414;DHT22;33163;0.000;0.000;2023-04-15T00:28:09;19.00;50.90
47414;DHT22;33163;0.000;0.000;2023-04-15T00:30:36;18.90;50.80
47414;DHT22;33163;0.000;0.000;2023-04-15T00:33:03;19.00;50.90
47414;DHT22;33163;0.000;0.000;2023-04-15T00:35:30;19.00;50.90
47414;DHT22;33163;0.000;0.000;2023-04-15T00:37:57;19.00;50.80
47414;DHT22;33163;0.000;0.000;2023-04-15T00:40:25;19.00;50.90
47414;DHT22;33163;0.000;0.000;2023-04-15T00:42:52;18.90;50.80
47414;DHT22;33163;0.000;0.000;2023-04-15T00:45:19;18.90;50.80
47414;DHT22;33163;0.000;0.000;2023-04-15T00:47:46;18.90;50.80
47414;DHT22;33163;0.000;0.000;2023-04-15T00:50:13;18.90;50.70
47414;DHT22;33163;0.000;0.000;2023-04-15T00:52:39;18.90;50.70
47414;DHT22;33163;0.000;0.000;2023-04-15T00:55:07;18.90;50.70
47414;DHT22;33163;0.000;0.000;2023-04-15T00:57:36;18.90;50.70
47414;DHT22;33163;0.000;0.000;2023-04-15T01:00:05;18.90;50.70
47414;DHT22;33163;0.000;0.000;2023-04-15T01:02:34;18.90;50.60
47414;DHT22;33163;0.000;0.000;2023-04-15T01:05:03;18.90;50.60
47414;DHT22;33163;0.000;0.000;2023-04-15T01:07:30;18.90;50.60
47414;DHT22;33163;0.000;0.000;2023-04-15T01:09:57;18.90;50.60
47414;DHT22;33163;0.000;0.000;2023-04-15T01:12:25;18.90;50.50
47414;DHT22;33163;0.000;0.000;2023-04-15T01:14:54;18.90;50.50
47414;DHT22;33163;0.000;0.000;2023-04-15T01:17:21;18.90;50.50
47414;DHT22;33163;0.000;0.000;2023-04-15T01:19:50;18.90;50.50
47414;DHT22;33163;0.000;0.000;2023-04-15T01:22:17;18.90;50.50
47414;DHT22;33163;0.000;0.000;2023-04-15T01:24:48;18.90;50.50
47414;DHT22;33163;0.000;0.000;2023-04-15T01:27:18;18.80;50.40
47414;DHT22;33163;0.000;0.000;2023-04-15T01:29:45;18.90;50.50
47414;DHT22;33163;0.000;0.000;2023-04-15T01:32:12;18.90;51.10
47414;DHT22;33163;0.000;0.000;2023-04-15T01:34:39;18.90;50.40
47414;DHT22;33163;0.000;0.000;2023-04-15T01:37:06;18.90;50.40
47414;DHT22;33163;0.000;0.000;2023-04-15T01:39:32;18.90;50.40
47414;DHT22;33163;0.000;0.000;2023-04-15T01:41:59;18.90;50.40
47414;DHT22;33163;0.000;0.000;2023-04-15T01:44:28;18.80;50.30
47414;DHT22;33163;0.000;0.000;2023-04-15T01:46:55;18.80;50.30
47414;DHT22;33163;0.000;0.000;2023-04-15T01:49:21;18.80;50.20
47414;DHT22;33163;0.000;0.000;2023-04-15T01:51:48;18.80;50.20
47414;DHT22;33163;0.000;0.000;2023-04-15T01:54:15;18.80;50.20
47414;DHT22;33163;0.000;0.000;2023-04-15T01:56:42;18.80;50.20
47414;DHT22;33163;0.000;0.000;2023-04-15T01:59:08;18.80;50.20
47414;DHT22;33163;0.000;0.000;2023-04-15T02:01:36;18.80;50.20
47414;DHT22;33163;0.000;0.000;2023-04-15T02:04:04;18.80;50.20
47414;DHT22;33163;0.000;0.000;2023-04-15T02:06:31;18.80;50.10
47414;DHT22;33163;0.000;0.000;2023-04-15T02:08:58;18.80;50.10
47414;DHT22;33163;0.000;0.000;2023-04-15T02:11:25;18.80;50.10
47414;DHT22;33163;0.000;0.000;2023-04-15T02:13:52;18.80;50.10
47414;DHT22;33163;0.000;0.000;2023-04-15T02:16:19;18.80;50.10
47414;DHT22;33163;0.000;0.000;2023-04-15T02:18:47;18.80;50.10
47414;DHT22;33163;0.000;0.000;2023-04-15T02:21:14;18.80;50.10
47414;DHT22;33163;0.000;0.000;2023-04-15T02:23:40;18.80;50.10
47414;DHT22;33163;0.000;0.000;2023-04-15T02:26:08;18.80;50.10
47414;DHT22;33163;0.000;0.000;2023-04-15T02:28:36;18.80;50.10
47414;DHT22;33163;0.000;0.000;2023-04-15T02:31:04;18.70;50.00
47414;DHT22;33163;0.000;0.000;2023-04-15T02:33:31;18.70;50.00
47414;DHT22;33163;0.000;0.000;2023-04-15T02:35:59;18.70;50.00
47414;DHT22;33163;0.000;0.000;2023-04-15T02:38:26;18.80;50.10
47414;DHT22;33163;0.000;0.000;2023-04-15T02:40:53;18.70;50.00
47414;DHT22;33163;0.000;0.000;2023-04-15T02:43:19;18.70;50.00
47414;DHT22;33163;0.000;0.000;2023-04-15T02:45:47;18.70;50.00
47414;DHT22;33163;0.000;0.000;2023-04-15T02:48:13;18.70;50.00
47414;DHT22;33163;0.000;0.000;2023-04-15T02:50:42;18.70;50.70
47414;DHT22;33163;0.000;0.000;2023-04-15T02:53:10;18.70;50.00
47414;DHT22;33163;0.000;0.000;2023-04-15T02:55:39;18.70;50.00
47414;DHT22;33163;0.000;0.000;2023-04-15T02:58:06;18.70;50.00
47414;DHT22;33163;0.000;0.000;2023-04-15T03:00:32;18.70;50.00
47414;DHT22;33163;0.000;0.000;2023-04-15T03:03:02;18.70;50.00
47414;DHT22;33163;0.000;0.000;2023-04-15T03:05:29;18.70;50.00
47414;DHT22;33163;0.000;0.000;2023-04-15T03:07:56;18.70;50.00
47414;DHT22;33163;0.000;0.000;2023-04-15T03:10:24;18.70;50.00
47414;DHT22;33163;0.000;0.000;2023-04-15T03:12:50;18.70;50.10
47414;DHT22;33163;0.000;0.000;2023-04-15T03:15:17;18.70;50.00
47414;DHT22;33163;0.000;0.000;2023-04-15T03:17:44;18.60;50.00
47414;DHT22;33163;0.000;0.000;2023-04-15T03:20:11;18.70;50.00
47414;DHT22;33163;0.000;0.000;2023-04-15T03:22:37;18.70;50.10
47414;DHT22;33163;0.000;0.000;2023-04-15T03:25:05;18.70;50.00
47414;DHT22;33163;0.000;0.000;2023-04-15T03:27:33;18.60;50.00
47414;DHT22;33163;0.000;0.000;2023-04-15T03:30:00;18.60;50.00
47414;DHT22;33163;0.000;0.000;2023-04-15T03:32:26;18.60;50.00
47414;DHT22;33163;0.000;0.000;2023-04-15T03:34:53;18.60;50.00
47414;DHT22;33163;0.000;0.000;2023-04-15T03:37:20;18.60;50.00
47414;DHT22;33163;0.000;0.000;2023-04-15T03:39:47;18.60;50.00
47414;DHT22;33163;0.000;0.000;2023-04-15T03:42:13;18.60;50.00
47414;DHT22;33163;0.000;0.000;2023-04-15T03:44:41;18.60;50.00
47414;DHT22;33163;0.000;0.000;2023-04-15T03:47:08;18.60;50.00
47414;DHT22;33163;0.000;0.000;2023-04-15T03:49:35;18.60;50.00
47414;DHT22;33163;0.000;0.000;2023-04-15T03:52:02;18.60;50.00
47414;DHT22;33163;0.000;0.000;2023-04-15T03:54:29;18.60;50.00
47414;DHT22;33163;0.000;0.000;2023-04-15T03:56:56;18.60;50.00
47414;DHT22;33163;0.000;0.000;2023-04-15T03:59:22;18.60;50.00
47414;DHT22;33163;0.000;0.000;2023-04-15T04:01:50;18.50;49.90
47414;DHT22;33163;0.000;0.000;2023-04-15T04:04:17;18.60;50.00
47414;DHT22;33163;0.000;0.000;2023-04-15T04:06:44;18.50;50.00
47414;DHT22;33163;0.000;0.000;2023-04-15T04:09:11;18.60;50.00
47414;DHT22;33163;0.000;0.000;2023-04-15T04:11:37;18.60;50.00
47414;DHT22;33163;0.000;0.000;2023-04-15T04:14:04;18.60;50.00
47414;DHT22;33163;0.000;0.000;2023-04-15T04:16:31;18.50;49.90
47414;DHT22;33163;0.000;0.000;2023-04-15T04:18:59;18.50;49.90
47414;DHT22;33163;0.000;0.000;2023-04-15T04:21:25;18.50;50.00
47414;DHT22;33163;0.000;0.000;2023-04-15T04:23:53;18.50;50.00
47414;DHT22;33163;0.000;0.000;2023-04-15T04:26:21;18.50;50.60
47414;DHT22;33163;0.000;0.000;2023-04-15T04:28:47;18.50;49.90
47414;DHT22;33163;0.000;0.000;2023-04-15T04:31:14;18.50;49.90
47414;DHT22;33163;0.000;0.000;2023-04-15T04:33:41;18.50;50.00
47414;DHT22;33163;0.000;0.000;2023-04-15T04:36:09;18.50;50.00
47414;DHT22;33163;0.000;0.000;2023-04-15T04:38:36;18.50;50.00
47414;DHT22;33163;0.000;0.000;2023-04-15T04:41:03;18.50;50.00
47414;DHT22;33163;0.000;0.000;2023-04-15T04:43:29;18.50;50.00
47414;DHT22;33163;0.000;0.000;2023-04-15T04:45:56;18.50;50.00
47414;DHT22;33163;0.000;0.000;2023-04-15T04:48:23;18.50;50.00
47414;DHT22;33163;0.000;0.000;2023-04-15T04:50:50;18.50;50.10
47414;DHT22;33163;0.000;0.000;2023-04-15T04:53:18;18.50;50.10
47414;DHT22;33163;0.000;0.000;2023-04-15T04:55:45;18.50;50.10
47414;DHT22;33163;0.000;0.000;2023-04-15T04:58:12;18.40;50.10
47414;DHT22;33163;0.000;0.000;2023-04-15T05:00:39;18.50;50.10
47414;DHT22;33163;0.000;0.000;2023-04-15T05:03:06;18.50;50.10
47414;DHT22;33163;0.000;0.000;2023-04-15T05:05:33;18.40;50.10
47414;DHT22;33163;0.000;0.000;2023-04-15T05:08:01;18.40;50.10
47414;DHT22;33163;0.000;0.000;2023-04-15T05:10:29;18.50;50.20
47414;DHT22;33163;0.000;0.000;2023-04-15T05:12:56;18.40;50.10
47414;DHT22;33163;0.000;0.000;2023-04-15T05:15:23;18.40;50.20
47414;DHT22;33163;0.000;0.000;2023-04-15T05:17:50;18.40;50.20
47414;DHT22;33163;0.000;0.000;2023-04-15T05:20:17;18.40;50.30
47414;DHT22;33163;0.000;0.000;2023-04-15T05:22:44;18.40;50.30
47414;DHT22;33163;0.000;0.000;2023-04-15T05:25:11;18.40;50.30
47414;DHT22;33163;0.000;0.000;2023-04-15T05:27:39;18.40;50.90
47414;DHT22;33163;0.000;0.000;2023-04-15T05:30:07;18.40;50.30
47414;DHT22;33163;0.000;0.000;2023-04-15T05:32:34;18.40;50.40
47414;DHT22;33163;0.000;0.000;2023-04-15T05:35:01;18.40;50.40
47414;DHT22;33163;0.000;0.000;2023-04-15T05:37:28;18.40;50.40
47414;DHT22;33163;0.000;0.000;2023-04-15T05:39:54;18.40;50.40
47414;DHT22;33163;0.000;0.000;2023-04-15T05:42:21;18.40;50.40
47414;DHT22;33163;0.000;0.000;2023-04-15T05:44:49;18.40;50.40
47414;DHT22;33163;0.000;0.000;2023-04-15T05:47:16;18.40;50.40
47414;DHT22;33163;0.000;0.000;2023-04-15T05:49:43;18.40;50.50
47414;DHT22;33163;0.000;0.000;2023-04-15T05:52:09;18.40;50.50
47414;DHT22;33163;0.000;0.000;2023-04-15T05:54:36;18.40;50.50
47414;DHT22;33163;0.000;0.000;2023-04-15T05:57:03;18.40;50.60
47414;DHT22;33163;0.000;0.000;2023-04-15T05:59:30;18.40;50.60
47414;DHT22;33163;0.000;0.000;2023-04-15T06:01:58;18.40;50.70
47414;DHT22;33163;0.000;0.000;2023-04-15T06:04:25;18.40;50.70
47414;DHT22;33163;0.000;0.000;2023-04-15T06:06:52;18.40;50.70
47414;DHT22;33163;0.000;0.000;2023-04-15T06:09:18;18.40;50.80
47414;DHT22;33163;0.000;0.000;2023-04-15T06:11:45;18.40;50.80
47414;DHT22;33163;0.000;0.000;2023-04-15T06:14:12;18.40;50.80
47414;DHT22;33163;0.000;0.000;2023-04-15T06:16:38;18.40;51.00
47414;DHT22;33163;0.000;0.000;2023-04-15T06:19:06;18.40;51.00
47414;DHT22;33163;0.000;0.000;2023-04-15T06:21:33;18.40;51.20
47414;DHT22;33163;0.000;0.000;2023-04-15T06:24:00;18.40;51.10
47414;DHT22;33163;0.000;0.000;2023-04-15T06:26:28;18.40;50.90
47414;DHT22;33163;0.000;0.000;2023-04-15T06:28:55;18.40;51.20
47414;DHT22;33163;0.000;0.000;2023-04-15T06:31:22;18.40;51.20
47414;DHT22;33163;0.000;0.000;2023-04-15T06:33:49;18.40;51.20
47414;DHT22;33163;0.000;0.000;2023-04-15T06:36:17;18.40;51.30
47414;DHT22;33163;0.000;0.000;2023-04-15T06:38:44;18.40;51.40
47414;DHT22;33163;0.000;0.000;2023-04-15T06:41:11;18.40;51.50
47414;DHT22;33163;0.000;0.000;2023-04-15T06:43:38;18.40;51.40
47414;DHT22;33163;0.000;0.000;2023-04-15T06:46:05;18.40;51.50
47414;DHT22;33163;0.000;0.000;2023-04-15T06:48:32;18.40;51.40
47414;DHT22;33163;0.000;0.000;2023-04-15T06:50:58;18.40;51.40
47414;DHT22;33163;0.000;0.000;2023-04-15T06:53:26;18.40;51.20
47414;DHT22;33163;0.000;0.000;2023-04-15T06:55:53;18.40;51.20
47414;DHT22;33163;0.000;0.000;2023-04-15T06:58:20;18.40;51.20
47414;DHT22;33163;0.000;0.000;2023-04-15T07:00:47;18.50;51.20
47414;DHT22;33163;0.000;0.000;2023-04-15T07:03:14;18.40;51.20
47414;DHT22;33163;0.000;0.000;2023-04-15T07:05:41;18.50;51.20
47414;DHT22;33163;0.000;0.000;2023-04-15T07:08:07;18.50;51.20
47414;DHT22;33163;0.000;0.000;2023-04-15T07:10:35;18.50;51.20
47414;DHT22;33163;0.000;0.000;2023-04-15T07:13:03;18.50;51.20
47414;DHT22;33163;0.000;0.000;2023-04-15T07:15:30;18.50;51.20
47414;DHT22;33163;0.000;0.000;2023-04-15T07:17:56;18.50;51.20
47414;DHT22;33163;0.000;0.000;2023-04-15T07:20:23;18.50;51.20
47414;DHT22;33163;0.000;0.000;2023-04-15T07:22:50;18.60;51.30
47414;DHT22;33163;0.000;0.000;2023-04-15T07:25:17;18.60;51.30
47414;DHT22;33163;0.000;0.000;2023-04-15T07:27:45;18.60;51.30
47414;DHT22;33163;0.000;0.000;2023-04-15T07:30:12;18.60;51.40
47414;DHT22;33163;0.000;0.000;2023-04-15T07:32:39;18.60;51.40
47414;DHT22;33163;0.000;0.000;2023-04-15T07:35:06;18.60;51.50
47414;DHT22;33163;0.000;0.000;2023-04-15T07:37:34;18.70;51.50
47414;DHT22;33163;0.000;0.000;2023-04-15T07:40:01;18.70;51.60
47414;DHT22;33163;0.000;0.000;2023-04-15T07:42:29;18.70;51.70
47414;DHT22;33163;0.000;0.000;2023-04-15T07:44:57;18.70;51.80
47414;DHT22;33163;0.000;0.000;2023-04-15T07:47:24;18.80;51.90
47414;DHT22;33163;0.000;0.000;2023-04-15T07:49:51;18.80;51.80
47414;DHT22;33163;0.000;0.000;2023-04-15T07:52:18;18.90;51.70
47414;DHT22;33163;0.000;0.000;2023-04-15T07:54:45;19.10;51.50
47414;DHT22;33163;0.000;0.000;2023-04-15T07:57:12;19.10;51.50
47414;DHT22;33163;0.000;0.000;2023-04-15T07:59:38;19.20;51.60
47414;DHT22;33163;0.000;0.000;2023-04-15T08:02:08;19.20;51.50
47414;DHT22;33163;0.000;0.000;2023-04-15T08:04:35;19.20;51.50
47414;DHT22;33163;0.000;0.000;2023-04-15T08:07:01;19.20;51.60
47414;DHT22;33163;0.000;0.000;2023-04-15T08:09:29;19.30;51.70
47414;DHT22;33163;0.000;0.000;2023-04-15T08:11:55;19.30;51.70
47414;DHT22;33163;0.000;0.000;2023-04-15T08:14:23;19.40;52.00
47414;DHT22;33163;0.000;0.000;2023-04-15T08:16:50;19.40;52.00
47414;DHT22;33163;0.000;0.000;2023-04-15T08:19:18;19.40;52.20
47414;DHT22;33163;0.000;0.000;2023-04-15T08:21:45;19.50;52.40
47414;DHT22;33163;0.000;0.000;2023-04-15T08:24:11;19.50;52.40
47414;DHT22;33163;0.000;0.000;2023-04-15T08:26:38;19.50;52.50
47414;DHT22;33163;0.000;0.000;2023-04-15T08:29:06;19.60;52.60
47414;DHT22;33163;0.000;0.000;2023-04-15T08:31:33;19.60;52.90
47414;DHT22;33163;0.000;0.000;2023-04-15T08:34:00;19.70;52.90
47414;DHT22;33163;0.000;0.000;2023-04-15T08:36:28;19.70;53.00
47414;DHT22;33163;0.000;0.000;2023-04-15T08:38:55;19.70;52.90
47414;DHT22;33163;0.000;0.000;2023-04-15T08:41:23;19.80;53.20
47414;DHT22;33163;0.000;0.000;2023-04-15T08:43:56;19.80;53.50
47414;DHT22;33163;0.000;0.000;2023-04-15T08:46:23;19.80;53.30
47414;DHT22;33163;0.000;0.000;2023-04-15T08:48:50;19.80;53.40
47414;DHT22;33163;0.000;0.000;2023-04-15T08:51:17;19.80;53.60
47414;DHT22;33163;0.000;0.000;2023-04-15T08:53:46;19.80;53.60
47414;DHT22;33163;0.000;0.000;2023-04-15T08:56:13;19.90;53.60
47414;DHT22;33163;0.000;0.000;2023-04-15T08:58:41;19.90;53.60
47414;DHT22;33163;0.000;0.000;2023-04-15T09:01:10;19.90;54.30
47414;DHT22;33163;0.000;0.000;2023-04-15T09:03:37;20.00;53.50
47414;DHT22;33163;0.000;0.000;2023-04-15T09:06:04;20.00;53.50
47414;DHT22;33163;0.000;0.000;2023-04-15T09:08:31;20.10;53.50
47414;DHT22;33163;0.000;0.000;2023-04-15T09:11:00;20.10;53.50
47414;DHT22;33163;0.000;0.000;2023-04-15T09:13:27;20.10;53.50
47414;DHT22;33163;0.000;0.000;2023-04-15T09:15:54;20.20;53.70
47414;DHT22;33163;0.000;0.000;2023-04-15T09:18:28;20.20;53.60
47414;DHT22;33163;0.000;0.000;2023-04-15T09:20:55;20.30;54.30
47414;DHT22;33163;0.000;0.000;2023-04-15T09:23:22;20.30;53.70
47414;DHT22;33163;0.000;0.000;2023-04-15T09:25:49;20.30;53.70
47414;DHT22;33163;0.000;0.000;2023-04-15T09:28:23;20.30;53.70
47414;DHT22;33163;0.000;0.000;2023-04-15T09:30:51;20.30;53.80
47414;DHT22;33163;0.000;0.000;2023-04-15T09:33:18;20.30;53.80
47414;DHT22;33163;0.000;0.000;2023-04-15T09:35:56;20.30;53.80
47414;DHT22;33163;0.000;0.000;2023-04-15T09:38:23;20.30;53.70
47414;DHT22;33163;0.000;0.000;2023-04-15T09:40:50;20.30;53.80
47414;DHT22;33163;0.000;0.000;2023-04-15T09:43:18;20.30;53.90
47414;DHT22;33163;0.000;0.000;2023-04-15T09:45:49;20.30;53.40
47414;DHT22;33163;0.000;0.000;2023-04-15T09:48:18;20.30;53.00
47414;DHT22;33163;0.000;0.000;2023-04-15T09:50:47;20.40;52.60
47414;DHT22;33163;0.000;0.000;2023-04-15T09:53:18;20.30;52.20
47414;DHT22;33163;0.000;0.000;2023-04-15T09:55:48;20.40;52.00
47414;DHT22;33163;0.000;0.000;2023-04-15T09:58:21;20.40;52.20
47414;DHT22;33163;0.000;0.000;2023-04-15T10:00:50;20.40;51.20
47414;DHT22;33163;0.000;0.000;2023-04-15T10:03:20;20.40;49.50
47414;DHT22;33163;0.000;0.000;2023-04-15T10:05:48;20.40;49.10
47414;DHT22;33163;0.000;0.000;2023-04-15T10:08:17;20.40;48.70
47414;DHT22;33163;0.000;0.000;2023-04-15T10:10:45;20.40;48.80
47414;DHT22;33163;0.000;0.000;2023-04-15T10:13:13;20.40;48.10
47414;DHT22;33163;0.000;0.000;2023-04-15T10:15:44;20.40;48.10
47414;DHT22;33163;0.000;0.000;2023-04-15T10:18:15;20.40;48.00
47414;DHT22;33163;0.000;0.000;2023-04-15T10:20:44;20.40;47.90
47414;DHT22;33163;0.000;0.000;2023-04-15T10:23:11;20.40;47.70
47414;DHT22;33163;0.000;0.000;2023-04-15T10:25:38;20.40;47.40
47414;DHT22;33163;0.000;0.000;2023-04-15T10:28:06;20.40;47.30
47414;DHT22;33163;0.000;0.000;2023-04-15T10:30:33;20.50;47.30
47414;DHT22;33163;0.000;0.000;2023-04-15T10:33:02;20.50;47.10
47414;DHT22;33163;0.000;0.000;2023-04-15T10:35:30;20.50;47.10
47414;DHT22;33163;0.000;0.000;2023-04-15T10:37:58;20.50;47.60
47414;DHT22;33163;0.000;0.000;2023-04-15T10:40:29;20.50;47.70
47414;DHT22;33163;0.000;0.000;2023-04-15T10:42:58;20.50;46.80
47414;DHT22;33163;0.000;0.000;2023-04-15T10:45:26;20.50;47.20
47414;DHT22;33163;0.000;0.000;2023-04-15T10:47:56;20.40;46.00
47414;DHT22;33163;0.000;0.000;2023-04-15T10:50:26;20.40;46.50
47414;DHT22;33163;0.000;0.000;2023-04-15T10:52:55;20.40;45.90
47414;DHT22;33163;0.000;0.000;2023-04-15T10:55:23;20.40;46.00
47414;DHT22;33163;0.000;0.000;2023-04-15T10:57:52;20.40;45.80
47414;DHT22;33163;0.000;0.000;2023-04-15T11:00:20;20.40;45.40
47414;DHT22;33163;0.000;0.000;2023-04-15T11:02:52;20.40;46.20
47414;DHT22;33163;0.000;0.000;2023-04-15T11:05:20;20.50;45.40
47414;DHT22;33163;0.000;0.000;2023-04-15T11:07:51;20.40;46.00
47414;DHT22;33163;0.000;0.000;2023-04-15T11:10:52;20.50;45.90
47414;DHT22;33163;0.000;0.000;2023-04-15T11:13:26;20.50;46.20
47414;DHT22;33163;0.000;0.000;2023-04-15T11:15:57;20.40;45.90
47414;DHT22;33163;0.000;0.000;2023-04-15T11:18:27;20.40;45.20
47414;DHT22;33163;0.000;0.000;2023-04-15T11:20:55;20.50;45.70
47414;DHT22;33163;0.000;0.000;2023-04-15T11:23:30;20.50;45.40
47414;DHT22;33163;0.000;0.000;2023-04-15T11:25:57;20.50;45.30
47414;DHT22;33163;0.000;0.000;2023-04-15T11:28:25;20.60;45.70
47414;DHT22;33163;0.000;0.000;2023-04-15T11:30:53;20.60;45.50
47414;DHT22;33163;0.000;0.000;2023-04-15T11:33:21;20.60;46.10
47414;DHT22;33163;0.000;0.000;2023-04-15T11:35:49;20.70;44.60
47414;DHT22;33163;0.000;0.000;2023-04-15T11:38:16;20.70;44.40
47414;DHT22;33163;0.000;0.000;2023-04-15T11:40:45;20.70;44.60
47414;DHT22;33163;0.000;0.000;2023-04-15T11:43:13;20.70;44.10
47414;DHT22;33163;0.000;0.000;2023-04-15T11:45:48;20.70;44.70
47414;DHT22;33163;0.000;0.000;2023-04-15T11:48:16;20.70;44.70
47414;DHT22;33163;0.000;0.000;2023-04-15T11:50:43;20.80;44.80
47414;DHT22;33163;0.000;0.000;2023-04-15T11:53:12;20.80;44.60
47414;DHT22;33163;0.000;0.000;2023-04-15T11:55:44;20.70;44.50
47414;DHT22;33163;0.000;0.000;2023-04-15T11:58:13;20.70;45.30
47414;DHT22;33163;0.000;0.000;2023-04-15T12:00:45;20.70;45.70
47414;DHT22;33163;0.000;0.000;2023-04-15T12:03:14;20.70;45.90
47414;DHT22;33163;0.000;0.000;2023-04-15T12:06:08;20.80;46.30
47414;DHT22;33163;0.000;0.000;2023-04-15T12:09:02;20.80;46.40
47414;DHT22;33163;0.000;0.000;2023-04-15T12:11:41;20.90;46.40
47414;DHT22;33163;0.000;0.000;2023-04-15T12:14:10;21.00;46.50
47414;DHT22;33163;0.000;0.000;2023-04-15T12:16:40;20.90;46.60
47414;DHT22;33163;0.000;0.000;2023-04-15T12:19:09;20.90;47.10
47414;DHT22;33163;0.000;0.000;2023-04-15T12:21:37;21.00;47.60
47414;DHT22;33163;0.000;0.000;2023-04-15T12:24:06;21.00;47.80
47414;DHT22;33163;0.000;0.000;2023-04-15T12:26:35;21.00;47.30
47414;DHT22;33163;0.000;0.000;2023-04-15T12:29:06;20.80;47.20
47414;DHT22;33163;0.000;0.000;2023-04-15T12:31:33;20.80;47.40
47414;DHT22;33163;0.000;0.000;2023-04-15T12:34:01;20.70;47.40
47414;DHT22;33163;0.000;0.000;2023-04-15T12:36:29;20.70;47.30
47414;DHT22;33163;0.000;0.000;2023-04-15T12:39:01;20.70;47.10
47414;DHT22;33163;0.000;0.000;2023-04-15T12:41:29;20.70;46.70
47414;DHT22;33163;0.000;0.000;2023-04-15T12:43:55;20.60;46.80
47414;DHT22;33163;0.000;0.000;2023-04-15T12:46:24;20.70;47.40
47414;DHT22;33163;0.000;0.000;2023-04-15T12:48:51;20.90;47.60
47414;DHT22;33163;0.000;0.000;2023-04-15T12:51:18;21.00;47.40
47414;DHT22;33163;0.000;0.000;2023-04-15T12:53:46;21.10;47.60
47414;DHT22;33163;0.000;0.000;2023-04-15T12:56:14;21.20;47.70
47414;DHT22;33163;0.000;0.000;2023-04-15T12:58:41;21.20;47.80
47414;DHT22;33163;0.000;0.000;2023-04-15T13:01:07;21.30;47.80
47414;DHT22;33163;0.000;0.000;2023-04-15T13:03:36;21.30;48.00
47414;DHT22;33163;0.000;0.000;2023-04-15T13:06:02;21.30;47.90
47414;DHT22;33163;0.000;0.000;2023-04-15T13:08:30;21.30;48.00
47414;DHT22;33163;0.000;0.000;2023-04-15T13:10:57;21.30;48.10
47414;DHT22;33163;0.000;0.000;2023-04-15T13:13:24;21.30;48.10
47414;DHT22;33163;0.000;0.000;2023-04-15T13:15:51;21.30;48.20
47414;DHT22;33163;0.000;0.000;2023-04-15T13:18:18;21.40;48.10
47414;DHT22;33163;0.000;0.000;2023-04-15T13:20:46;21.30;48.10
47414;DHT22;33163;0.000;0.000;2023-04-15T13:23:13;21.30;48.20
47414;DHT22;33163;0.000;0.000;2023-04-15T13:25:40;21.30;48.40
47414;DHT22;33163;0.000;0.000;2023-04-15T13:28:06;21.30;48.40
47414;DHT22;33163;0.000;0.000;2023-04-15T13:30:33;21.30;48.50
47414;DHT22;33163;0.000;0.000;2023-04-15T13:33:00;21.30;48.50
47414;DHT22;33163;0.000;0.000;2023-04-15T13:35:27;21.30;48.50
47414;DHT22;33163;0.000;0.000;2023-04-15T13:37:55;21.20;48.50
47414;DHT22;33163;0.000;0.000;2023-04-15T13:40:22;21.20;48.60
47414;DHT22;33163;0.000;0.000;2023-04-15T13:42:49;21.10;48.60
47414;DHT22;33163;0.000;0.000;2023-04-15T13:45:16;21.00;48.70
47414;DHT22;33163;0.000;0.000;2023-04-15T13:47:43;20.90;48.50
47414;DHT22;33163;0.000;0.000;2023-04-15T13:50:10;20.90;48.90
47414;DHT22;33163;0.000;0.000;2023-04-15T13:52:37;20.80;47.50
47414;DHT22;33163;0.000;0.000;2023-04-15T13:55:06;20.70;48.10
47414;DHT22;33163;0.000;0.000;2023-04-15T13:57:33;20.60;48.30
47414;DHT22;33163;0.000;0.000;2023-04-15T13:59:59;20.60;48.50
47414;DHT22;33163;0.000;0.000;2023-04-15T14:02:26;20.60;48.20
47414;DHT22;33163;0.000;0.000;2023-04-15T14:04:53;20.50;47.90
47414;DHT22;33163;0.000;0.000;2023-04-15T14:07:20;20.40;47.60
47414;DHT22;33163;0.000;0.000;2023-04-15T14:09:46;20.30;47.50
47414;DHT22;33163;0.000;0.000;2023-04-15T14:12:15;20.20;47.70
47414;DHT22;33163;0.000;0.000;2023-04-15T14:14:41;20.20;47.60
47414;DHT22;33163;0.000;0.000;2023-04-15T14:17:08;20.30;48.00
47414;DHT22;33163;0.000;0.000;2023-04-15T14:19:35;20.30;48.00
47414;DHT22;33163;0.000;0.000;2023-04-15T14:22:01;20.40;47.90
47414;DHT22;33163;0.000;0.000;2023-04-15T14:24:28;20.40;47.80
47414;DHT22;33163;0.000;0.000;2023-04-15T14:26:55;20.50;47.60
47414;DHT22;33163;0.000;0.000;2023-04-15T14:29:24;20.50;47.70
47414;DHT22;33163;0.000;0.000;2023-04-15T14:31:50;20.50;47.80
47414;DHT22;33163;0.000;0.000;2023-04-15T14:34:17;20.50;47.80
47414;DHT22;33163;0.000;0.000;2023-04-15T14:36:46;20.50;47.90
47414;DHT22;33163;0.000;0.000;2023-04-15T14:39:13;20.50;47.90
47414;DHT22;33163;0.000;0.000;2023-04-15T14:41:40;20.50;48.00
47414;DHT22;33163;0.000;0.000;2023-04-15T14:44:07;20.50;48.10
47414;DHT22;33163;0.000;0.000;2023-04-15T14:46:37;20.50;48.20
47414;DHT22;33163;0.000;0.000;2023-04-15T14:49:05;20.50;48.20
47414;DHT22;33163;0.000;0.000;2023-04-15T14:51:32;20.50;48.40
47414;DHT22;33163;0.000;0.000;2023-04-15T14:53:58;20.30;47.90
47414;DHT22;33163;0.000;0.000;2023-04-15T14:56:25;20.20;48.30
47414;DHT22;33163;0.000;0.000;2023-04-15T14:58:52;20.10;48.50
47414;DHT22;33163;0.000;0.000;2023-04-15T15:01:19;19.90;48.80
47414;DHT22;33163;0.000;0.000;2023-04-15T15:03:48;19.90;48.70
47414;DHT22;33163;0.000;0.000;2023-04-15T15:06:14;19.80;49.00
47414;DHT22;33163;0.000;0.000;2023-04-15T15:08:41;19.90;49.00
47414;DHT22;33163;0.000;0.000;2023-04-15T15:11:08;19.90;49.10
47414;DHT22;33163;0.000;0.000;2023-04-15T15:13:34;20.00;48.90
47414;DHT22;33163;0.000;0.000;2023-04-15T15:16:01;20.00;48.80
47414;DHT22;33163;0.000;0.000;2023-04-15T15:18:29;20.10;48.90
47414;DHT22;33163;0.000;0.000;2023-04-15T15:20:57;20.10;49.10
47414;DHT22;33163;0.000;0.000;2023-04-15T15:23:23;20.10;49.00
47414;DHT22;33163;0.000;0.000;2023-04-15T15:25:50;20.20;49.30
47414;DHT22;33163;0.000;0.000;2023-04-15T15:28:17;20.20;49.30
47414;DHT22;33163;0.000;0.000;2023-04-15T15:30:44;20.20;49.40
47414;DHT22;33163;0.000;0.000;2023-04-15T15:33:11;20.20;49.50
47414;DHT22;33163;0.000;0.000;2023-04-15T15:35:38;20.20;49.90
47414;DHT22;33163;0.000;0.000;2023-04-15T15:38:06;20.20;49.80
47414;DHT22;33163;0.000;0.000;2023-04-15T15:40:33;20.20;49.90
47414;DHT22;33163;0.000;0.000;2023-04-15T15:43:00;20.20;50.30
47414;DHT22;33163;0.000;0.000;2023-04-15T15:45:26;20.20;50.60
47414;DHT22;33163;0.000;0.000;2023-04-15T15:47:53;20.30;51.00